< < Back
Terminal Aerodrome Forecast


Current Version              Previous Versions:   1  2  3  4  5  6  7  8  9  

Terminal Aerodrome Forecast

357
FTUS44 KBMX 280520
TAFANB
TAF
KANB 280520Z 2806/2906 09002KT P6SM SCT060 BKN150
     FM281500 13007KT P6SM SCT050 BKN200=

Latest METAR

925
SAUS70 KWBC 290200 RRA
MTRANB
METAR KANB 290153Z AUTO 00000KT 10SM CLR 22/18 A3011 RMK AO2 SLP186
T02170183


USA.gov is the U.S. government's official web portal to all federal, state and local government web resources and services.